Time;durP1;ratioP1;P1;durP2;ratioP2;P2;SDS_P1;SDS_P2;PMS_P1;PMS_P2;Temp;Humidity;BMP_temperature;BMP_pressure;BME280_temperature;BME280_humidity;BME280_pressure;Samples;Min_cycle;Max_cycle;Signal;HPM_P1;HPM_P2
2022/07/15 00:00:11;;;;;;;4.75;2.35;;;;;;;;;;5096763;28;20573;-60
2022/07/15 00:02:41;;;;;;;3.25;2.25;;;;;;;;;;5097427;28;20688;-61
2022/07/15 00:05:10;;;;;;;2.30;2.00;;;;;;;;;;5097064;28;20619;-61
2022/07/15 00:07:40;;;;;;;3.28;2.33;;;;;;;;;;5097884;28;20204;-61
2022/07/15 00:10:20;;;;;;;3.88;1.90;;;;;;;;;;5096814;28;20227;-61
2022/07/15 00:12:49;;;;;;;5.75;2.50;;;;;;;;;;5097090;28;20202;-60
2022/07/15 00:15:17;;;;;;;5.20;2.25;;;;;;;;;;5097053;28;20199;-61
2022/07/15 00:17:45;;;;;;;4.55;2.20;;;;;;;;;;5097251;28;20253;-61
2022/07/15 00:20:14;;;;;;;4.63;2.20;;;;;;;;;;5096891;28;20264;-61
2022/07/15 00:22:44;;;;;;;3.60;2.20;;;;;;;;;;5097432;28;20558;-61
2022/07/15 00:25:12;;;;;;;5.05;2.08;;;;;;;;;;5097371;28;20249;-61
2022/07/15 00:27:51;;;;;;;3.13;1.88;;;;;;;;;;5099272;28;20210;-62
2022/07/15 00:30:19;;;;;;;2.63;1.65;;;;;;;;;;5100762;28;20245;-61
2022/07/15 00:32:47;;;;;;;3.47;1.80;;;;;;;;;;5101012;28;20206;-61
2022/07/15 00:35:15;;;;;;;3.95;1.80;;;;;;;;;;5100932;28;20200;-61
2022/07/15 00:37:44;;;;;;;2.47;1.83;;;;;;;;;;5100925;28;20573;-61
2022/07/15 00:40:12;;;;;;;2.22;1.70;;;;;;;;;;5100797;28;20200;-61
2022/07/15 00:42:46;;;;;;;2.70;1.60;;;;;;;;;;5100648;28;20227;-61
2022/07/15 00:45:15;;;;;;;2.30;1.60;;;;;;;;;;5100806;28;20282;-61
2022/07/15 00:47:42;;;;;;;2.55;1.60;;;;;;;;;;5100579;28;20222;-61
2022/07/15 00:50:11;;;;;;;2.05;1.25;;;;;;;;;;5099961;28;20240;-61
2022/07/15 00:52:40;;;;;;;2.67;1.60;;;;;;;;;;5099740;28;20196;-61
2022/07/15 00:55:11;;;;;;;2.53;1.25;;;;;;;;;;5100193;28;20235;-61
2022/07/15 00:57:39;;;;;;;1.60;1.40;;;;;;;;;;5100649;28;20257;-61
2022/07/15 01:00:08;;;;;;;1.60;1.33;;;;;;;;;;5099917;28;20290;-61
2022/07/15 01:02:36;;;;;;;3.70;1.50;;;;;;;;;;5100817;28;20572;-61
2022/07/15 01:05:05;;;;;;;2.10;1.27;;;;;;;;;;5100587;28;20227;-60
2022/07/15 01:07:33;;;;;;;2.55;1.50;;;;;;;;;;5100622;28;20206;-61
2022/07/15 01:10:00;;;;;;;1.80;1.35;;;;;;;;;;5100216;28;20200;-60
2022/07/15 01:12:29;;;;;;;2.28;1.30;;;;;;;;;;5100733;28;20200;-60
2022/07/15 01:14:58;;;;;;;1.95;1.50;;;;;;;;;;5100114;28;20210;-61
2022/07/15 01:17:26;;;;;;;2.78;1.45;;;;;;;;;;5099690;28;20204;-60
2022/07/15 01:19:54;;;;;;;1.67;1.30;;;;;;;;;;5099870;28;20203;-61
2022/07/15 01:22:23;;;;;;;2.25;1.20;;;;;;;;;;5099903;28;20219;-60
2022/07/15 01:24:51;;;;;;;1.45;1.35;;;;;;;;;;5099791;28;20298;-61
2022/07/15 01:27:18;;;;;;;1.75;1.30;;;;;;;;;;5100217;28;20307;-61
2022/07/15 01:29:46;;;;;;;2.83;1.40;;;;;;;;;;5099368;28;20238;-61
2022/07/15 01:32:13;;;;;;;2.78;1.52;;;;;;;;;;5100417;28;20625;-61
2022/07/15 01:34:41;;;;;;;1.58;1.30;;;;;;;;;;5099921;28;20249;-61
2022/07/15 01:37:09;;;;;;;1.75;1.23;;;;;;;;;;5099985;28;20203;-61
2022/07/15 01:39:38;;;;;;;1.52;1.40;;;;;;;;;;5100124;28;20200;-61
2022/07/15 01:42:06;;;;;;;2.05;1.40;;;;;;;;;;5099544;28;20231;-61
2022/07/15 01:44:33;;;;;;;2.03;1.23;;;;;;;;;;5100044;28;20223;-60
2022/07/15 01:47:01;;;;;;;1.88;1.40;;;;;;;;;;5099721;28;20204;-61
2022/07/15 01:49:31;;;;;;;1.55;1.20;;;;;;;;;;5099091;28;20196;-61
2022/07/15 01:52:00;;;;;;;2.47;1.20;;;;;;;;;;5099024;28;20238;-61
2022/07/15 01:54:29;;;;;;;1.80;1.00;;;;;;;;;;5099944;28;20447;-61
2022/07/15 01:56:58;;;;;;;1.50;1.40;;;;;;;;;;5099662;28;20239;-60
2022/07/15 01:59:26;;;;;;;1.30;1.20;;;;;;;;;;5099776;28;20573;-61
2022/07/15 02:01:54;;;;;;;1.42;1.13;;;;;;;;;;5099100;28;20215;-61
2022/07/15 02:04:23;;;;;;;1.88;1.30;;;;;;;;;;5099272;28;20264;-61
2022/07/15 02:06:51;;;;;;;1.88;1.15;;;;;;;;;;5099505;28;20217;-60
2022/07/15 02:09:18;;;;;;;1.20;1.10;;;;;;;;;;5098092;28;20585;-61
2022/07/15 02:11:46;;;;;;;1.30;1.20;;;;;;;;;;5098880;28;20580;-61
2022/07/15 02:14:15;;;;;;;1.13;1.02;;;;;;;;;;5099015;28;20207;-61
2022/07/15 02:16:44;;;;;;;1.20;1.10;;;;;;;;;;5098511;28;20266;-61
2022/07/15 02:19:12;;;;;;;1.20;1.10;;;;;;;;;;5099496;28;20206;-61
2022/07/15 02:21:39;;;;;;;1.15;1.05;;;;;;;;;;5099083;28;20227;-61
2022/07/15 02:24:07;;;;;;;1.65;1.20;;;;;;;;;;5098786;28;20714;-61
2022/07/15 02:26:35;;;;;;;1.38;1.17;;;;;;;;;;5098968;28;20204;-62
2022/07/15 02:29:03;;;;;;;1.10;1.00;;;;;;;;;;5099050;28;20298;-61
2022/07/15 02:31:33;;;;;;;1.08;0.98;;;;;;;;;;5098774;28;20206;-61
2022/07/15 02:34:00;;;;;;;1.58;1.02;;;;;;;;;;5098301;28;20550;-61
2022/07/15 02:36:29;;;;;;;1.35;1.15;;;;;;;;;;5098355;28;20225;-61
2022/07/15 02:38:56;;;;;;;1.55;1.05;;;;;;;;;;5098473;28;20221;-61
2022/07/15 02:41:24;;;;;;;1.38;1.20;;;;;;;;;;5098367;28;20200;-61
2022/07/15 02:43:51;;;;;;;1.48;1.20;;;;;;;;;;5098644;28;20203;-60
2022/07/15 02:46:19;;;;;;;1.00;0.90;;;;;;;;;;5098692;28;20210;-61
2022/07/15 02:48:48;;;;;;;1.10;1.00;;;;;;;;;;5097967;28;20608;-61
2022/07/15 02:51:15;;;;;;;1.33;1.10;;;;;;;;;;5097298;28;20223;-61
2022/07/15 02:53:43;;;;;;;1.00;1.00;;;;;;;;;;5098308;28;20199;-61
2022/07/15 02:56:11;;;;;;;1.30;1.20;;;;;;;;;;5098477;28;20195;-61
2022/07/15 02:58:38;;;;;;;1.25;0.90;;;;;;;;;;5098478;28;20234;-61
2022/07/15 03:01:06;;;;;;;1.20;1.10;;;;;;;;;;5097896;28;20218;-61
2022/07/15 03:03:34;;;;;;;1.25;1.15;;;;;;;;;;5097399;28;20263;-61
2022/07/15 03:06:03;;;;;;;0.98;0.98;;;;;;;;;;5097543;28;20195;-61
2022/07/15 03:08:30;;;;;;;1.10;0.95;;;;;;;;;;5098291;28;20214;-61
2022/07/15 03:10:58;;;;;;;1.05;0.90;;;;;;;;;;5098086;28;20283;-61
2022/07/15 03:13:25;;;;;;;1.70;1.08;;;;;;;;;;5097905;28;20192;-61
2022/07/15 03:15:53;;;;;;;1.00;1.00;;;;;;;;;;5097525;28;20195;-61
2022/07/15 03:18:21;;;;;;;1.10;1.00;;;;;;;;;;5097608;28;20207;-61
2022/07/15 03:20:49;;;;;;;1.00;0.95;;;;;;;;;;5097554;28;20278;-61
2022/07/15 03:23:18;;;;;;;1.63;0.93;;;;;;;;;;5097249;28;20611;-61
2022/07/15 03:25:46;;;;;;;1.02;0.90;;;;;;;;;;5096998;28;20291;-61
2022/07/15 03:28:13;;;;;;;1.10;1.00;;;;;;;;;;5097457;28;20556;-61
2022/07/15 03:30:41;;;;;;;1.10;1.00;;;;;;;;;;5097278;28;20200;-61
2022/07/15 03:33:08;;;;;;;1.58;0.85;;;;;;;;;;5097578;28;20283;-61
2022/07/15 03:35:36;;;;;;;1.20;1.10;;;;;;;;;;5097124;28;20225;-61
2022/07/15 03:38:04;;;;;;;0.93;0.82;;;;;;;;;;5097707;28;20253;-61
2022/07/15 03:40:33;;;;;;;1.27;0.98;;;;;;;;;;5097353;28;20200;-61
2022/07/15 03:43:00;;;;;;;1.33;1.10;;;;;;;;;;5096936;28;20229;-61
2022/07/15 03:45:28;;;;;;;0.90;0.90;;;;;;;;;;5097083;28;20264;-61
2022/07/15 03:47:56;;;;;;;1.02;1.00;;;;;;;;;;5097594;28;20226;-61
2022/07/15 03:50:24;;;;;;;1.20;1.02;;;;;;;;;;5096077;28;20945;-61
2022/07/15 03:52:51;;;;;;;0.95;0.95;;;;;;;;;;5097432;28;20207;-61
2022/07/15 03:55:19;;;;;;;1.20;1.10;;;;;;;;;;5097294;28;20230;-61
2022/07/15 03:57:48;;;;;;;1.23;1.13;;;;;;;;;;5097481;28;20230;-61
2022/07/15 04:00:16;;;;;;;1.02;0.93;;;;;;;;;;5096656;28;20211;-61
2022/07/15 04:02:44;;;;;;;0.82;0.73;;;;;;;;;;5098976;28;20226;-61
2022/07/15 04:05:11;;;;;;;1.52;1.00;;;;;;;;;;5100077;28;20200;-61
2022/07/15 04:07:39;;;;;;;1.73;0.90;;;;;;;;;;5100186;28;20199;-61
2022/07/15 04:10:07;;;;;;;1.48;1.00;;;;;;;;;;5100766;28;20200;-61
2022/07/15 04:12:35;;;;;;;1.20;1.10;;;;;;;;;;5100554;28;20242;-61
2022/07/15 04:15:05;;;;;;;1.38;1.00;;;;;;;;;;5099849;28;20204;-61
2022/07/15 04:17:33;;;;;;;0.80;0.80;;;;;;;;;;5099848;28;20207;-61
2022/07/15 04:20:00;;;;;;;1.02;0.93;;;;;;;;;;5100551;28;20283;-61
2022/07/15 04:22:28;;;;;;;1.38;1.00;;;;;;;;;;5100420;28;20227;-61
2022/07/15 04:24:56;;;;;;;1.10;1.00;;;;;;;;;;5100949;28;20500;-61
2022/07/15 04:27:24;;;;;;;0.90;0.90;;;;;;;;;;5100113;28;20283;-61
2022/07/15 04:29:51;;;;;;;1.33;1.05;;;;;;;;;;5099785;28;20200;-61
2022/07/15 04:32:20;;;;;;;1.00;1.00;;;;;;;;;;5099467;28;20196;-61
2022/07/15 04:34:48;;;;;;;1.23;0.93;;;;;;;;;;5099815;28;20227;-62
2022/07/15 04:37:16;;;;;;;0.90;0.90;;;;;;;;;;5099972;28;20299;-61
2022/07/15 04:39:44;;;;;;;1.15;0.93;;;;;;;;;;5099082;28;20195;-60
2022/07/15 04:42:12;;;;;;;0.90;0.90;;;;;;;;;;5099767;28;20585;-61
2022/07/15 04:44:40;;;;;;;1.42;0.90;;;;;;;;;;5100063;28;20235;-61
2022/07/15 04:47:08;;;;;;;1.45;0.75;;;;;;;;;;5100157;28;20203;-61
2022/07/15 04:52:22;;;;;;;0.98;0.90;;;;;;;;;;5077970;28;20208;-61
2022/07/15 04:54:50;;;;;;;1.10;1.00;;;;;;;;;;5078551;28;20215;-60
2022/07/15 04:57:18;;;;;;;1.20;0.90;;;;;;;;;;5077984;28;20200;-60
2022/07/15 04:59:46;;;;;;;0.80;0.80;;;;;;;;;;5077938;28;20227;-60
2022/07/15 05:02:13;;;;;;;1.13;1.00;;;;;;;;;;5078423;28;20250;-61
2022/07/15 05:04:42;;;;;;;1.85;1.10;;;;;;;;;;5077914;28;20200;-61
2022/07/15 05:07:10;;;;;;;1.00;0.93;;;;;;;;;;5078380;28;20193;-60
2022/07/15 05:09:38;;;;;;;1.35;1.00;;;;;;;;;;5077266;28;20204;-61
2022/07/15 05:12:06;;;;;;;0.90;0.82;;;;;;;;;;5077255;28;20196;-61
2022/07/15 05:14:33;;;;;;;1.13;1.02;;;;;;;;;;5077822;28;20460;-61
2022/07/15 05:17:01;;;;;;;1.13;1.00;;;;;;;;;;5078313;28;20620;-61
2022/07/15 05:19:29;;;;;;;1.75;0.93;;;;;;;;;;5077359;28;20235;-61
2022/07/15 05:21:58;;;;;;;1.30;1.00;;;;;;;;;;5076845;28;20640;-60
2022/07/15 05:24:26;;;;;;;0.80;0.80;;;;;;;;;;5077466;28;20227;-60
2022/07/15 05:26:53;;;;;;;0.80;0.80;;;;;;;;;;5077474;28;20265;-61
2022/07/15 05:29:21;;;;;;;1.10;1.00;;;;;;;;;;5077368;28;20196;-61
2022/07/15 05:31:49;;;;;;;1.35;0.90;;;;;;;;;;5076158;28;20262;-61
2022/07/15 05:34:17;;;;;;;0.90;0.90;;;;;;;;;;5076377;28;20826;-61
2022/07/15 05:36:45;;;;;;;0.85;0.85;;;;;;;;;;5076699;28;20212;-61
2022/07/15 05:39:14;;;;;;;1.10;0.90;;;;;;;;;;5076048;28;20196;-61
2022/07/15 05:41:42;;;;;;;1.02;0.93;;;;;;;;;;5076365;28;20200;-61
2022/07/15 05:44:09;;;;;;;1.23;1.00;;;;;;;;;;5076128;28;20217;-61
2022/07/15 05:46:37;;;;;;;1.33;1.00;;;;;;;;;;5076274;28;20223;-60
2022/07/15 05:49:05;;;;;;;1.13;0.90;;;;;;;;;;5075689;28;20703;-61
2022/07/15 05:51:33;;;;;;;1.10;1.00;;;;;;;;;;5091405;28;20628;-61
2022/07/15 05:54:02;;;;;;;0.90;0.90;;;;;;;;;;5096371;28;20651;-61
2022/07/15 05:56:31;;;;;;;0.80;0.80;;;;;;;;;;5096096;28;20264;-61
2022/07/15 05:58:59;;;;;;;0.90;0.90;;;;;;;;;;5096430;28;20249;-60
2022/07/15 06:01:26;;;;;;;0.93;0.90;;;;;;;;;;5096071;28;20235;-61
2022/07/15 06:03:54;;;;;;;1.10;1.00;;;;;;;;;;5095805;28;20215;-60
2022/07/15 06:06:22;;;;;;;0.95;0.88;;;;;;;;;;5095557;28;20200;-60
2022/07/15 06:08:49;;;;;;;1.27;1.00;;;;;;;;;;5095480;28;20203;-60
2022/07/15 06:11:17;;;;;;;2.67;0.95;;;;;;;;;;5095489;28;20207;-60
2022/07/15 06:13:46;;;;;;;1.38;1.00;;;;;;;;;;5095998;28;20245;-61
2022/07/15 06:16:14;;;;;;;0.88;0.80;;;;;;;;;;5096573;28;20517;-61
2022/07/15 06:18:42;;;;;;;1.23;0.90;;;;;;;;;;5095551;28;20196;-61
2022/07/15 06:21:09;;;;;;;0.85;0.85;;;;;;;;;;5094729;28;20254;-61
2022/07/15 06:23:38;;;;;;;1.00;1.00;;;;;;;;;;5095421;28;20311;-60
2022/07/15 06:26:05;;;;;;;1.15;1.05;;;;;;;;;;5095665;28;20303;-60
2022/07/15 06:28:33;;;;;;;1.33;0.85;;;;;;;;;;5096360;28;20203;-60
2022/07/15 06:31:02;;;;;;;0.80;0.80;;;;;;;;;;5095276;28;20608;-61
2022/07/15 06:33:30;;;;;;;1.67;0.90;;;;;;;;;;5095099;28;20199;-61
2022/07/15 06:35:58;;;;;;;1.60;1.00;;;;;;;;;;5095809;28;20207;-61
2022/07/15 06:38:25;;;;;;;1.73;1.00;;;;;;;;;;5095737;28;20219;-60
2022/07/15 06:40:53;;;;;;;1.48;1.38;;;;;;;;;;5095916;28;20202;-60
2022/07/15 06:43:21;;;;;;;0.90;0.90;;;;;;;;;;5095787;28;20235;-61
2022/07/15 06:45:48;;;;;;;1.40;0.90;;;;;;;;;;5096399;28;20332;-61
2022/07/15 06:48:17;;;;;;;2.08;0.93;;;;;;;;;;5096061;28;20211;-61
2022/07/15 06:50:45;;;;;;;2.03;0.90;;;;;;;;;;5095907;28;20248;-61
2022/07/15 06:53:14;;;;;;;1.10;1.00;;;;;;;;;;5095684;28;20246;-61
2022/07/15 06:55:42;;;;;;;1.17;1.02;;;;;;;;;;5092672;28;20191;-61
2022/07/15 06:58:10;;;;;;;1.55;0.90;;;;;;;;;;5094805;28;20265;-61
2022/07/15 07:00:37;;;;;;;2.42;1.02;;;;;;;;;;5094895;28;20206;-61
2022/07/15 07:03:05;;;;;;;1.10;1.00;;;;;;;;;;5094875;28;20710;-61
2022/07/15 07:05:34;;;;;;;1.80;0.95;;;;;;;;;;5093969;28;20200;-60
2022/07/15 07:08:02;;;;;;;1.42;0.80;;;;;;;;;;5094838;28;20210;-62
2022/07/15 07:10:31;;;;;;;0.93;0.77;;;;;;;;;;5094413;28;20283;-61
2022/07/15 07:12:59;;;;;;;0.85;0.82;;;;;;;;;;5094319;28;20291;-61
2022/07/15 07:15:26;;;;;;;1.33;0.90;;;;;;;;;;5094459;28;20622;-61
2022/07/15 07:17:54;;;;;;;0.90;0.80;;;;;;;;;;5083908;28;20219;-61
2022/07/15 07:20:21;;;;;;;1.90;1.05;;;;;;;;;;5094904;28;20295;-61
2022/07/15 07:22:51;;;;;;;0.80;0.80;;;;;;;;;;5094913;28;20200;-61
2022/07/15 07:25:19;;;;;;;2.08;1.20;;;;;;;;;;5095409;28;20199;-68
2022/07/15 07:27:48;;;;;;;3.25;1.35;;;;;;;;;;5095406;28;20786;-66
2022/07/15 07:30:16;;;;;;;4.57;1.02;;;;;;;;;;5094252;28;20199;-63
2022/07/15 07:32:43;;;;;;;5.60;1.23;;;;;;;;;;5092869;28;20196;-68
2022/07/15 07:35:11;;;;;;;4.60;1.20;;;;;;;;;;5094723;28;20759;-60
2022/07/15 07:37:40;;;;;;;4.50;1.33;;;;;;;;;;5094483;28;20207;-61
2022/07/15 07:40:12;;;;;;;6.43;1.45;;;;;;;;;;5094298;28;20249;-60
2022/07/15 07:42:40;;;;;;;4.30;1.30;;;;;;;;;;5095217;28;20207;-60
2022/07/15 07:45:08;;;;;;;5.25;1.40;;;;;;;;;;5094138;28;20255;-60
2022/07/15 07:47:39;;;;;;;5.97;1.70;;;;;;;;;;5094689;28;20249;-61
2022/07/15 07:50:08;;;;;;;3.47;1.52;;;;;;;;;;5092236;28;20231;-60
2022/07/15 07:52:36;;;;;;;11.32;1.42;;;;;;;;;;5093635;28;20502;-60
2022/07/15 07:55:05;;;;;;;3.95;1.48;;;;;;;;;;5094033;28;20203;-61
2022/07/15 07:57:34;;;;;;;3.72;1.50;;;;;;;;;;5095245;28;20580;-60
2022/07/15 08:00:02;;;;;;;2.97;1.30;;;;;;;;;;5094484;28;20200;-61
2022/07/15 08:02:30;;;;;;;5.25;1.50;;;;;;;;;;5094111;28;20195;-60
2022/07/15 08:04:57;;;;;;;2.80;1.23;;;;;;;;;;5094207;28;20265;-60
2022/07/15 08:07:25;;;;;;;2.97;1.15;;;;;;;;;;5094442;28;20239;-59
2022/07/15 08:09:54;;;;;;;3.85;1.17;;;;;;;;;;5093215;28;20218;-60
2022/07/15 08:12:22;;;;;;;3.53;1.23;;;;;;;;;;5094036;28;20210;-60
2022/07/15 08:14:54;;;;;;;1.88;1.23;;;;;;;;;;5093945;28;20286;-59
2022/07/15 08:17:22;;;;;;;2.40;1.20;;;;;;;;;;5092926;28;20195;-60
2022/07/15 08:19:50;;;;;;;3.05;1.20;;;;;;;;;;5092546;28;20674;-60
2022/07/15 08:22:17;;;;;;;2.40;1.50;;;;;;;;;;5093812;28;20250;-60
2022/07/15 08:24:45;;;;;;;3.40;1.58;;;;;;;;;;5093447;28;20573;-60
2022/07/15 08:27:12;;;;;;;2.22;1.45;;;;;;;;;;5092439;28;20200;-60
2022/07/15 08:29:40;;;;;;;2.15;1.33;;;;;;;;;;5091804;28;20200;-60
2022/07/15 08:32:09;;;;;;;3.90;1.70;;;;;;;;;;5093080;28;20195;-60
2022/07/15 08:34:37;;;;;;;3.53;1.70;;;;;;;;;;5091807;28;20206;-60
2022/07/15 08:37:05;;;;;;;1.65;1.40;;;;;;;;;;5093060;28;20215;-59
2022/07/15 08:39:32;;;;;;;2.88;1.55;;;;;;;;;;5092604;28;20284;-59
2022/07/15 08:42:00;;;;;;;2.28;1.45;;;;;;;;;;5092723;28;20259;-60
2022/07/15 08:44:27;;;;;;;3.40;1.55;;;;;;;;;;5093409;28;20220;-60
2022/07/15 08:46:56;;;;;;;2.13;1.50;;;;;;;;;;5093315;28;20592;-60
2022/07/15 08:49:25;;;;;;;2.40;1.30;;;;;;;;;;5096077;28;20599;-60
2022/07/15 08:51:53;;;;;;;3.95;1.83;;;;;;;;;;5096203;28;20324;-60
2022/07/15 08:54:22;;;;;;;2.13;1.48;;;;;;;;;;5097061;28;20195;-60
2022/07/15 08:56:50;;;;;;;1.80;1.42;;;;;;;;;;5097213;28;20192;-60
2022/07/15 08:59:19;;;;;;;1.50;1.38;;;;;;;;;;5091971;28;20195;-60
2022/07/15 09:01:48;;;;;;;2.47;1.75;;;;;;;;;;5086408;28;20615;-60
2022/07/15 09:04:16;;;;;;;3.22;1.83;;;;;;;;;;5094164;28;20231;-59
2022/07/15 09:06:46;;;;;;;2.28;1.40;;;;;;;;;;5097145;28;20200;-60
2022/07/15 09:09:27;;;;;;;2.28;1.73;;;;;;;;;;5096185;28;20295;-61
2022/07/15 09:11:57;;;;;;;2.47;1.38;;;;;;;;;;5096384;28;20188;-60
2022/07/15 09:14:26;;;;;;;1.70;1.58;;;;;;;;;;5096519;28;20230;-59
2022/07/15 09:17:06;;;;;;;1.55;1.30;;;;;;;;;;5096643;28;20211;-59
2022/07/15 09:19:56;;;;;;;3.50;1.60;;;;;;;;;;5095996;28;20191;-59
2022/07/15 09:22:24;;;;;;;1.73;1.40;;;;;;;;;;5096942;28;20203;-60
2022/07/15 09:24:52;;;;;;;1.98;1.60;;;;;;;;;;5095743;28;20721;-59
2022/07/15 09:27:30;;;;;;;2.38;1.65;;;;;;;;;;5096482;28;20196;-60
2022/07/15 09:38:25;;;;;;;2.80;1.65;;;;;;;;;;5074401;28;20195;-60
2022/07/15 09:40:55;;;;;;;1.95;1.60;;;;;;;;;;5095762;28;20820;-59
2022/07/15 09:43:22;;;;;;;2.05;1.52;;;;;;;;;;5094746;28;20200;-59
2022/07/15 09:45:57;;;;;;;2.05;1.40;;;;;;;;;;5095951;28;20257;-59
2022/07/15 09:48:28;;;;;;;1.73;1.23;;;;;;;;;;5094885;28;20592;-60
2022/07/15 09:50:59;;;;;;;2.28;1.83;;;;;;;;;;5088864;28;20230;-60
2022/07/15 09:53:29;;;;;;;3.22;1.50;;;;;;;;;;5095655;28;20221;-60
2022/07/15 09:55:57;;;;;;;1.90;1.52;;;;;;;;;;5095952;28;20261;-60
2022/07/15 09:58:24;;;;;;;1.70;1.30;;;;;;;;;;5095521;28;20213;-59
2022/07/15 10:00:53;;;;;;;1.50;1.30;;;;;;;;;;5096118;28;20671;-59
2022/07/15 10:03:23;;;;;;;1.45;1.35;;;;;;;;;;5095140;28;20287;-59
2022/07/15 10:05:54;;;;;;;1.83;1.40;;;;;;;;;;5094485;28;20280;-60
2022/07/15 10:08:22;;;;;;;2.05;1.60;;;;;;;;;;5093767;28;20478;-59
2022/07/15 10:10:51;;;;;;;2.00;1.60;;;;;;;;;;5078725;28;20301;-59
2022/07/15 10:13:35;;;;;;;1.65;1.40;;;;;;;;;;5084873;28;20207;-59
2022/07/15 10:16:12;;;;;;;1.60;1.50;;;;;;;;;;5061988;28;20196;-59
2022/07/15 10:18:47;;;;;;;2.75;1.60;;;;;;;;;;5094018;28;20226;-60
2022/07/15 10:21:23;;;;;;;1.70;1.58;;;;;;;;;;5094258;28;20195;-59
2022/07/15 10:24:00;;;;;;;1.60;1.40;;;;;;;;;;5095186;28;20230;-59
2022/07/15 10:26:39;;;;;;;1.90;1.70;;;;;;;;;;5093651;28;20207;-59
2022/07/15 10:29:08;;;;;;;1.88;1.60;;;;;;;;;;5094384;28;20227;-59
2022/07/15 10:31:36;;;;;;;2.30;1.40;;;;;;;;;;5094117;28;20589;-59
2022/07/15 10:34:23;;;;;;;2.35;1.50;;;;;;;;;;5094456;28;20192;-60
2022/07/15 10:37:06;;;;;;;1.40;1.30;;;;;;;;;;5094963;28;20234;-59
2022/07/15 10:39:55;;;;;;;2.65;1.70;;;;;;;;;;5094582;28;20495;-59
2022/07/15 10:42:24;;;;;;;1.83;1.40;;;;;;;;;;5093625;28;20697;-59
2022/07/15 10:45:06;;;;;;;3.60;1.48;;;;;;;;;;5094316;28;20583;-60
2022/07/15 10:47:34;;;;;;;1.92;1.58;;;;;;;;;;5092154;28;20203;-59
2022/07/15 10:50:02;;;;;;;1.88;1.35;;;;;;;;;;5093243;28;20231;-60
2022/07/15 10:52:30;;;;;;;1.60;1.50;;;;;;;;;;5093856;28;20199;-60
2022/07/15 10:55:05;;;;;;;2.00;1.38;;;;;;;;;;5092412;28;20200;-60
2022/07/15 10:57:54;;;;;;;2.20;1.58;;;;;;;;;;5092934;28;20663;-60
2022/07/15 11:00:28;;;;;;;2.50;1.42;;;;;;;;;;5094611;28;20530;-59
2022/07/15 11:03:02;;;;;;;1.60;1.48;;;;;;;;;;5094646;28;20216;-59
2022/07/15 11:05:31;;;;;;;1.90;1.38;;;;;;;;;;5093589;28;20556;-59
2022/07/15 11:07:58;;;;;;;1.50;1.40;;;;;;;;;;5092377;28;20200;-59
2022/07/15 11:10:26;;;;;;;1.60;1.42;;;;;;;;;;5093717;28;20200;-59
2022/07/15 11:13:11;;;;;;;2.42;1.48;;;;;;;;;;5094620;28;20692;-59
2022/07/15 11:15:40;;;;;;;1.55;1.38;;;;;;;;;;5087524;28;20196;-60
2022/07/15 11:18:07;;;;;;;1.40;1.30;;;;;;;;;;5094179;28;20200;-59
2022/07/15 11:20:36;;;;;;;2.45;1.48;;;;;;;;;;5094423;28;20291;-59
2022/07/15 11:23:05;;;;;;;2.10;1.48;;;;;;;;;;5094067;28;20261;-59
2022/07/15 11:25:33;;;;;;;1.73;1.30;;;;;;;;;;5094236;28;20231;-60
2022/07/15 11:28:03;;;;;;;1.63;1.50;;;;;;;;;;5093939;28;20199;-59
2022/07/15 11:30:32;;;;;;;2.53;1.52;;;;;;;;;;5093535;28;20196;-59
2022/07/15 11:33:02;;;;;;;1.75;1.52;;;;;;;;;;5094740;28;20200;-60
2022/07/15 11:35:29;;;;;;;2.05;1.55;;;;;;;;;;5092994;28;20755;-60
2022/07/15 11:38:01;;;;;;;2.15;1.50;;;;;;;;;;5093470;28;20200;-59
2022/07/15 11:46:00;;;;;;;3.55;1.42;;;;;;;;;;5083921;28;20223;-59
2022/07/15 11:48:29;;;;;;;2.75;1.27;;;;;;;;;;5094110;28;20199;-59
2022/07/15 11:50:57;;;;;;;2.33;1.30;;;;;;;;;;5094009;28;20246;-59
2022/07/15 11:53:25;;;;;;;3.20;1.45;;;;;;;;;;5094434;28;20274;-59
2022/07/15 11:55:54;;;;;;;2.10;1.50;;;;;;;;;;5094406;28;20192;-60
2022/07/15 11:58:29;;;;;;;1.92;1.52;;;;;;;;;;5093517;28;20215;-60
2022/07/15 12:00:56;;;;;;;2.95;1.55;;;;;;;;;;5084057;28;20828;-60
2022/07/15 12:03:24;;;;;;;2.88;1.70;;;;;;;;;;5094380;28;20239;-59
2022/07/15 12:06:03;;;;;;;2.15;1.55;;;;;;;;;;5093743;28;20263;-59
2022/07/15 12:08:40;;;;;;;1.55;1.45;;;;;;;;;;5094057;28;20488;-59
2022/07/15 12:11:12;;;;;;;2.30;1.40;;;;;;;;;;5092955;28;20200;-59
2022/07/15 12:13:44;;;;;;;2.67;1.33;;;;;;;;;;5093416;28;20214;-59
2022/07/15 12:16:11;;;;;;;2.65;1.40;;;;;;;;;;5092374;28;20218;-60
2022/07/15 12:18:39;;;;;;;2.92;1.50;;;;;;;;;;5093054;28;20204;-60
2022/07/15 12:21:08;;;;;;;2.20;1.20;;;;;;;;;;5093088;28;20299;-59
2022/07/15 12:23:36;;;;;;;2.28;1.30;;;;;;;;;;5094521;28;20196;-59
2022/07/15 12:26:08;;;;;;;1.67;1.45;;;;;;;;;;5096787;28;20318;-59
2022/07/15 12:28:35;;;;;;;2.17;1.40;;;;;;;;;;5097378;28;20290;-60
2022/07/15 12:31:03;;;;;;;2.60;1.42;;;;;;;;;;5097032;28;20294;-59
2022/07/15 12:33:34;;;;;;;1.55;1.30;;;;;;;;;;5096648;28;20310;-59
2022/07/15 12:36:20;;;;;;;1.40;1.30;;;;;;;;;;5096594;28;20646;-59
2022/07/15 12:39:03;;;;;;;1.60;1.50;;;;;;;;;;5096992;28;20264;-59
2022/07/15 12:41:30;;;;;;;1.60;1.30;;;;;;;;;;5096066;28;20298;-59
2022/07/15 12:43:59;;;;;;;2.10;1.30;;;;;;;;;;5095641;28;20227;-59
2022/07/15 12:46:41;;;;;;;1.77;1.25;;;;;;;;;;5097481;28;20222;-59
2022/07/15 12:49:08;;;;;;;1.35;1.25;;;;;;;;;;5096576;28;20676;-59
2022/07/15 12:51:36;;;;;;;1.33;1.23;;;;;;;;;;5096744;28;20230;-59
2022/07/15 12:54:08;;;;;;;1.85;1.50;;;;;;;;;;5096769;28;20191;-59
2022/07/15 12:56:50;;;;;;;1.75;1.40;;;;;;;;;;5095470;28;20187;-59
2022/07/15 12:59:17;;;;;;;2.65;1.50;;;;;;;;;;5097089;28;20718;-59
2022/07/15 13:01:45;;;;;;;1.75;1.65;;;;;;;;;;5095890;28;20230;-59
2022/07/15 13:04:13;;;;;;;1.40;1.30;;;;;;;;;;5096596;28;20199;-60
2022/07/15 13:06:41;;;;;;;2.25;1.45;;;;;;;;;;5096487;28;20232;-59
2022/07/15 13:09:10;;;;;;;1.45;1.30;;;;;;;;;;5097270;28;20615;-59
2022/07/15 13:11:37;;;;;;;1.98;1.42;;;;;;;;;;5096822;28;20210;-59
2022/07/15 13:14:04;;;;;;;1.92;1.60;;;;;;;;;;5096989;28;20235;-60
2022/07/15 13:16:32;;;;;;;1.40;1.30;;;;;;;;;;5095457;28;20195;-59
2022/07/15 13:18:59;;;;;;;1.20;1.10;;;;;;;;;;5095667;28;20236;-59
2022/07/15 13:21:27;;;;;;;1.30;1.20;;;;;;;;;;5096190;28;20287;-59
2022/07/15 13:23:54;;;;;;;1.55;1.30;;;;;;;;;;5096243;28;20589;-59
2022/07/15 13:26:23;;;;;;;1.42;1.33;;;;;;;;;;5096675;28;20526;-59
2022/07/15 13:28:50;;;;;;;2.22;1.40;;;;;;;;;;5096194;28;20203;-59
2022/07/15 13:31:18;;;;;;;1.60;1.45;;;;;;;;;;5095571;28;20298;-59
2022/07/15 13:33:45;;;;;;;1.60;1.40;;;;;;;;;;5095521;28;20290;-59
2022/07/15 13:36:13;;;;;;;1.58;1.40;;;;;;;;;;5096751;28;20204;-59
2022/07/15 13:38:40;;;;;;;1.65;1.40;;;;;;;;;;5096877;28;20203;-59
2022/07/15 13:41:08;;;;;;;1.42;1.33;;;;;;;;;;5096296;28;20294;-59
2022/07/15 13:43:37;;;;;;;1.23;1.13;;;;;;;;;;5096109;28;20200;-59
2022/07/15 13:46:04;;;;;;;1.70;1.60;;;;;;;;;;5095927;28;20302;-59
2022/07/15 13:48:32;;;;;;;1.48;1.20;;;;;;;;;;5096598;28;20241;-59
2022/07/15 13:53:44;;;;;;;1.77;1.40;;;;;;;;;;5095707;28;20194;-59
2022/07/15 13:56:12;;;;;;;1.77;1.33;;;;;;;;;;5095625;28;20196;-59
2022/07/15 13:58:41;;;;;;;1.30;1.20;;;;;;;;;;5095782;28;20195;-59
2022/07/15 14:01:08;;;;;;;1.55;1.45;;;;;;;;;;5096615;28;20475;-60
2022/07/15 14:03:36;;;;;;;1.35;1.25;;;;;;;;;;5096796;28;20209;-59
2022/07/15 14:06:03;;;;;;;1.75;1.30;;;;;;;;;;5096546;28;20215;-59
2022/07/15 14:08:30;;;;;;;1.40;1.30;;;;;;;;;;5095422;28;20200;-59
2022/07/15 14:10:58;;;;;;;1.45;1.35;;;;;;;;;;5095608;28;20200;-59
2022/07/15 14:13:25;;;;;;;1.58;1.33;;;;;;;;;;5095247;28;20314;-59
2022/07/15 14:15:54;;;;;;;1.50;1.40;;;;;;;;;;5095492;28;20294;-59
2022/07/15 14:18:42;;;;;;;1.42;1.33;;;;;;;;;;5095582;28;20196;-59
2022/07/15 14:21:10;;;;;;;1.42;1.30;;;;;;;;;;5096011;28;20215;-59
2022/07/15 14:23:37;;;;;;;1.52;1.40;;;;;;;;;;5096063;28;20203;-59
2022/07/15 14:26:05;;;;;;;1.60;1.40;;;;;;;;;;5095889;28;20593;-59
2022/07/15 14:28:33;;;;;;;1.40;1.30;;;;;;;;;;5095240;28;20310;-60
2022/07/15 14:31:02;;;;;;;1.50;1.40;;;;;;;;;;5095505;28;20204;-59
2022/07/15 14:33:29;;;;;;;1.58;1.48;;;;;;;;;;5095044;28;20253;-59
2022/07/15 14:35:56;;;;;;;2.13;1.52;;;;;;;;;;5095459;28;20200;-59
2022/07/15 14:38:24;;;;;;;1.52;1.42;;;;;;;;;;5094313;28;20294;-59
2022/07/15 14:40:51;;;;;;;1.73;1.50;;;;;;;;;;5095456;28;20200;-59
2022/07/15 14:43:19;;;;;;;1.42;1.33;;;;;;;;;;5095083;28;20320;-59
2022/07/15 14:45:46;;;;;;;1.55;1.45;;;;;;;;;;5093764;28;20928;-59
2022/07/15 14:48:15;;;;;;;1.40;1.30;;;;;;;;;;5094770;28;20572;-59
2022/07/15 14:50:42;;;;;;;2.45;1.30;;;;;;;;;;5094873;28;20314;-59
2022/07/15 14:53:10;;;;;;;2.03;1.67;;;;;;;;;;5095190;28;20212;-59
2022/07/15 14:55:38;;;;;;;1.83;1.70;;;;;;;;;;5095871;28;20196;-60
2022/07/15 14:58:05;;;;;;;2.17;1.15;;;;;;;;;;5095361;28;20291;-59
2022/07/15 15:00:32;;;;;;;1.75;1.55;;;;;;;;;;5096041;28;20205;-59
2022/07/15 15:03:00;;;;;;;1.70;1.60;;;;;;;;;;5094928;28;20303;-59
2022/07/15 15:05:29;;;;;;;1.92;1.52;;;;;;;;;;5094801;28;20272;-59
2022/07/15 15:07:57;;;;;;;2.20;1.50;;;;;;;;;;5095345;28;20213;-59
2022/07/15 15:10:24;;;;;;;1.65;1.40;;;;;;;;;;5094676;28;20214;-59
2022/07/15 15:12:51;;;;;;;1.80;1.48;;;;;;;;;;5094624;28;20302;-59